aviador You're here:

KMCX Decoded Metar

in
Report Time2017-10-21 15:35:00
UTC Time2017-10-21 15:52:07
Flight Rules vfr VFR
Wind150° at 05 kt
W.Decomp.*RWY 18: 4.3 kt HW 2.5 kt LCW
W.Rank150° ranks 17
Current wind is above 150° avg. (4.8)
Visibility9999 m
Phenomena:N/A
Clouds:N/A
Expected CloudBase > 3,200 ft AGL from Temp-Dew spread
CeilingNone
Temp18°C
Dew Point10°C (60% RH)
AAT16.3°C
QNH1021 hPa
Raw Report
METAR KMCX 211535Z AUTO 15005KT 10SM CLR 18/10 A3016 RMK AO2 T01830098=

Extra information for KMCX:More info

Social comments